createdAt,value
2018-06-04T00:01:04.758Z,68.50
2018-06-04T00:03:41.286Z,68.60
2018-06-04T00:06:17.621Z,68.30
2018-06-04T00:08:54.060Z,68.80
2018-06-04T00:11:31.032Z,68.90
2018-06-04T00:14:07.505Z,69.10
2018-06-04T00:16:43.883Z,69.30
2018-06-04T00:19:20.367Z,69.60
2018-06-04T00:21:57.609Z,69.50
2018-06-04T00:24:33.953Z,69.50
2018-06-04T00:27:10.432Z,69.70
2018-06-04T00:29:46.793Z,69.80
2018-06-04T00:32:23.940Z,70.40
2018-06-04T00:35:00.802Z,70.50
2018-06-04T00:37:37.276Z,70.90
2018-06-04T00:40:19.471Z,71.20
2018-06-04T00:42:56.061Z,71.30
2018-06-04T00:45:32.531Z,71.60
2018-06-04T00:48:09.528Z,71.70
2018-06-04T00:50:46.493Z,71.50
2018-06-04T00:53:22.967Z,71.50
2018-06-04T00:56:16.775Z,72.10
2018-06-04T00:58:53.115Z,72.10
2018-06-04T01:01:29.593Z,72.20
2018-06-04T01:04:06.049Z,72.50
2018-06-04T01:06:42.477Z,73.20
2018-06-04T01:09:19.016Z,73.00
2018-06-04T01:11:56.378Z,73.50
2018-06-04T01:14:32.774Z,73.20
2018-06-04T01:17:11.093Z,73.40
2018-06-04T01:19:48.069Z,73.10
2018-06-04T01:22:24.966Z,73.20
2018-06-04T01:25:02.948Z,73.20
2018-06-04T01:27:39.203Z,73.50
2018-06-04T01:30:16.477Z,73.50
2018-06-04T01:32:52.791Z,73.60
2018-06-04T01:35:29.398Z,73.90
2018-06-04T01:38:05.660Z,74.10
2018-06-04T01:40:42.168Z,74.10
2018-06-04T01:43:18.599Z,74.30
2018-06-04T01:45:54.888Z,73.90
2018-06-04T01:48:31.324Z,73.90
2018-06-04T01:51:08.674Z,74.10
2018-06-04T01:53:45.325Z,74.30
2018-06-04T01:56:21.837Z,74.50
2018-06-04T01:58:58.190Z,74.30
2018-06-04T02:01:35.237Z,74.90
2018-06-04T02:04:11.791Z,74.80
2018-06-04T02:06:48.224Z,75.10
2018-06-04T02:09:24.534Z,75.10
2018-06-04T02:12:01.681Z,75.10
2018-06-04T02:14:39.342Z,75.50
2018-06-04T02:17:15.691Z,75.40
2018-06-04T02:19:52.203Z,75.50
2018-06-04T02:22:28.722Z,75.60
2018-06-04T02:25:06.679Z,75.70
2018-06-04T02:30:19.066Z,76.00
2018-06-04T02:32:55.530Z,76.40
2018-06-04T02:35:32.126Z,76.20
2018-06-04T02:38:08.440Z,76.20
2018-06-04T02:40:45.400Z,75.70
2018-06-04T02:43:21.922Z,76.60
2018-06-04T02:45:59.038Z,77.80
2018-06-04T02:48:38.109Z,77.20
2018-06-04T02:51:14.635Z,77.50
2018-06-04T02:53:51.286Z,76.90
2018-06-04T02:56:27.877Z,77.00
2018-06-04T02:59:05.100Z,77.10
2018-06-04T03:01:41.517Z,77.40
2018-06-04T03:04:17.851Z,77.40
2018-06-04T03:06:54.321Z,77.50
2018-06-04T03:09:30.803Z,77.80
2018-06-04T03:12:18.160Z,78.20
2018-06-04T03:14:54.751Z,78.20
2018-06-04T03:17:31.196Z,77.90
2018-06-04T03:20:07.685Z,78.10
2018-06-04T03:22:44.195Z,78.10
2018-06-04T03:25:23.586Z,78.10
2018-06-04T03:27:59.972Z,78.00
2018-06-04T03:30:36.370Z,78.20
2018-06-04T03:33:12.644Z,78.00
2018-06-04T03:35:49.111Z,77.70
2018-06-04T03:38:25.482Z,77.60
2018-06-04T03:41:02.023Z,77.60
2018-06-04T03:43:38.459Z,78.10
2018-06-04T03:46:15.052Z,77.90
2018-06-04T03:48:51.386Z,77.90
2018-06-04T03:51:27.958Z,77.70
2018-06-04T03:54:04.256Z,77.80
2018-06-04T03:56:40.819Z,77.60
2018-06-04T03:59:17.165Z,77.80
2018-06-04T04:01:53.491Z,77.80
2018-06-04T04:04:29.925Z,77.90
2018-06-04T04:07:06.460Z,78.10
2018-06-04T04:09:42.883Z,77.70
2018-06-04T04:12:20.060Z,77.60
2018-06-04T04:14:56.430Z,77.40
2018-06-04T04:17:32.999Z,77.60
2018-06-04T04:20:10.548Z,77.10
2018-06-04T04:22:47.084Z,76.90
2018-06-04T04:25:23.424Z,76.70
2018-06-04T04:27:59.993Z,77.00
2018-06-04T04:30:37.516Z,77.00
2018-06-04T04:33:13.829Z,76.80
2018-06-04T04:35:50.352Z,76.80
2018-06-04T04:38:26.708Z,77.30
2018-06-04T04:41:03.211Z,76.60
2018-06-04T04:43:39.579Z,76.50
2018-06-04T04:46:16.791Z,76.30
2018-06-04T04:48:53.236Z,76.30
2018-06-04T04:51:29.734Z,75.60
2018-06-04T04:54:08.373Z,75.60
2018-06-04T04:56:45.967Z,75.50
2018-06-04T04:59:23.330Z,75.30
2018-06-04T05:01:59.760Z,75.40
2018-06-04T05:04:37.032Z,75.60
2018-06-04T05:07:13.431Z,75.40
2018-06-04T05:09:49.917Z,74.80
2018-06-04T05:12:26.920Z,74.60
2018-06-04T05:15:03.289Z,73.60
2018-06-04T05:17:39.743Z,72.80
2018-06-04T05:20:16.000Z,72.40
2018-06-04T05:22:52.625Z,72.30
2018-06-04T05:25:29.140Z,70.50
2018-06-04T05:28:06.053Z,69.10
2018-06-04T05:30:43.825Z,66.70
2018-06-04T05:33:20.416Z,65.30
2018-06-04T05:35:57.538Z,63.50
2018-06-04T05:41:10.151Z,62.40
2018-06-04T05:43:46.570Z,60.90
2018-06-04T05:46:23.035Z,60.50
2018-06-04T05:48:59.622Z,59.70
2018-06-04T05:51:35.925Z,58.10
2018-06-04T05:56:48.706Z,57.10
2018-06-04T05:59:25.051Z,56.70
2018-06-04T06:02:01.540Z,55.50
2018-06-04T06:04:38.154Z,55.30
2018-06-04T06:07:14.968Z,54.70
2018-06-04T06:15:03.265Z,53.90
2018-06-04T06:17:39.639Z,53.60
2018-06-04T06:20:16.067Z,52.70
2018-06-04T06:22:52.608Z,52.90
2018-06-04T06:25:29.275Z,52.90
2018-06-04T06:28:05.805Z,53.20
2018-06-04T06:30:42.303Z,52.10
2018-06-04T06:33:18.812Z,51.60
2018-06-04T06:35:55.938Z,51.50
2018-06-04T06:38:32.354Z,50.40
2018-06-04T06:41:08.707Z,49.70
2018-06-04T06:43:46.177Z,50.00
2018-06-04T06:46:22.526Z,50.00
2018-06-04T06:48:59.035Z,49.30
2018-06-04T06:51:35.404Z,49.60
2018-06-04T06:54:11.984Z,49.50
2018-06-04T06:56:48.888Z,48.60
2018-06-04T06:59:25.483Z,48.70
2018-06-04T07:02:01.860Z,47.20
2018-06-04T07:04:38.135Z,47.80
2018-06-04T07:09:50.584Z,47.70
2018-06-04T07:12:27.364Z,47.00
2018-06-04T07:15:03.983Z,45.80
2018-06-04T07:17:40.337Z,46.10
2018-06-04T07:20:16.762Z,45.70
2018-06-04T07:22:53.424Z,45.60
2018-06-04T07:25:29.874Z,46.40
2018-06-04T07:28:06.905Z,47.00
2018-06-04T07:30:43.299Z,44.30
2018-06-04T07:33:22.224Z,44.60
2018-06-04T07:36:12.044Z,45.60
2018-06-04T07:38:48.524Z,44.70
2018-06-04T07:41:24.878Z,44.00
2018-06-04T07:44:01.439Z,44.80
2018-06-04T07:46:37.879Z,44.40
2018-06-04T07:49:14.219Z,43.70
2018-06-04T07:51:50.700Z,44.20
2018-06-04T07:54:27.170Z,43.30
2018-06-04T07:57:03.683Z,42.70
2018-06-04T07:59:40.192Z,43.20
2018-06-04T08:02:16.573Z,42.20
2018-06-04T08:04:53.040Z,41.30
2018-06-04T08:07:30.860Z,43.30
2018-06-04T08:10:07.918Z,42.60
2018-06-04T08:12:44.295Z,41.90
2018-06-04T08:15:20.623Z,41.70
2018-06-04T08:17:57.737Z,40.10
2018-06-04T08:20:35.188Z,39.90
2018-06-04T08:23:11.743Z,38.70
2018-06-04T08:25:48.186Z,39.10
2018-06-04T08:28:24.638Z,38.50
2018-06-04T08:31:02.471Z,38.70
2018-06-04T08:33:40.120Z,39.60
2018-06-04T08:36:16.547Z,38.50
2018-06-04T08:38:53.141Z,39.00
2018-06-04T08:41:29.670Z,39.30
2018-06-04T08:44:07.091Z,38.80
2018-06-04T08:46:44.686Z,38.00
2018-06-04T08:49:21.024Z,38.30
2018-06-04T08:51:57.590Z,38.10
2018-06-04T08:54:34.684Z,37.80
2018-06-04T08:57:11.761Z,38.60
2018-06-04T08:59:48.135Z,37.60
2018-06-04T09:02:24.568Z,37.00
2018-06-04T09:05:01.069Z,37.00
2018-06-04T09:07:37.505Z,37.10
2018-06-04T09:10:14.093Z,36.70
2018-06-04T09:12:50.417Z,37.00
2018-06-04T09:15:26.854Z,36.50
2018-06-04T09:18:03.417Z,37.80
2018-06-04T09:20:39.788Z,36.10
2018-06-04T09:23:16.275Z,36.80
2018-06-04T09:25:53.377Z,36.90
2018-06-04T09:28:30.290Z,37.40
2018-06-04T09:31:06.822Z,36.10
2018-06-04T09:33:43.323Z,37.20
2018-06-04T09:36:20.129Z,37.30
2018-06-04T09:38:56.574Z,36.70
2018-06-04T09:41:32.988Z,36.40
2018-06-04T09:44:09.405Z,35.80
2018-06-04T09:46:45.895Z,35.20
2018-06-04T09:49:22.331Z,35.60
2018-06-04T09:51:59.411Z,35.90
2018-06-04T09:54:35.796Z,34.90
2018-06-04T09:57:23.575Z,34.30
2018-06-04T09:59:59.950Z,34.90
2018-06-04T10:02:36.487Z,35.00
2018-06-04T10:05:12.998Z,35.00
2018-06-04T10:07:49.513Z,35.00
2018-06-04T10:10:25.996Z,34.90
2018-06-04T10:13:02.452Z,34.00
2018-06-04T10:15:38.951Z,35.60
2018-06-04T10:18:15.475Z,35.70
2018-06-04T10:20:51.821Z,34.80
2018-06-04T10:23:28.308Z,34.90
2018-06-04T10:26:04.847Z,34.80
2018-06-04T10:28:41.204Z,35.20
2018-06-04T10:31:17.794Z,34.40
2018-06-04T10:33:54.127Z,34.90
2018-06-04T10:36:30.750Z,34.00
2018-06-04T10:39:08.598Z,34.20
2018-06-04T10:41:46.186Z,34.90
2018-06-04T10:44:22.447Z,34.80
2018-06-04T10:46:58.837Z,35.10
2018-06-04T10:49:35.331Z,35.00
2018-06-04T10:52:12.024Z,34.60
2018-06-04T10:54:48.328Z,34.00
2018-06-04T10:57:24.676Z,34.60
2018-06-04T11:00:00.980Z,34.60
2018-06-04T11:02:37.534Z,33.60
2018-06-04T11:05:13.913Z,32.10
2018-06-04T11:07:50.334Z,34.00
2018-06-04T11:10:26.816Z,34.90
2018-06-04T11:13:03.267Z,33.80
2018-06-04T11:15:39.832Z,34.00
2018-06-04T11:18:16.320Z,33.00
2018-06-04T11:20:54.772Z,32.90
2018-06-04T11:23:34.324Z,32.40
2018-06-04T11:26:12.917Z,32.60
2018-06-04T11:28:52.555Z,31.20
2018-06-04T11:31:30.910Z,30.90
2018-06-04T11:34:09.208Z,30.70
2018-06-04T11:36:47.666Z,30.10
2018-06-04T11:39:23.927Z,28.00
2018-06-04T11:42:00.453Z,27.40
2018-06-04T11:44:37.483Z,29.40
2018-06-04T11:47:16.116Z,30.40
2018-06-04T11:49:53.312Z,28.10
2018-06-04T11:52:29.811Z,25.50
2018-06-04T11:55:06.164Z,25.30
2018-06-04T11:57:42.680Z,25.40
2018-06-04T12:00:19.561Z,27.60
2018-06-04T12:02:55.950Z,26.50
2018-06-04T12:05:32.354Z,26.10
2018-06-04T12:08:08.878Z,26.70
2018-06-04T12:10:45.382Z,27.80
2018-06-04T12:13:21.861Z,27.20
2018-06-04T12:15:58.320Z,27.30
2018-06-04T12:18:34.826Z,27.60
2018-06-04T12:21:11.307Z,27.00
2018-06-04T12:23:47.813Z,26.80
2018-06-04T12:26:24.339Z,26.70
2018-06-04T12:29:01.354Z,28.30
2018-06-04T12:31:37.900Z,27.50
2018-06-04T12:36:50.403Z,27.80
2018-06-04T12:39:26.836Z,27.70
2018-06-04T12:42:05.201Z,28.40
2018-06-04T12:44:41.408Z,28.50
2018-06-04T12:47:17.998Z,28.90
2018-06-04T12:49:54.503Z,29.30
2018-06-04T12:52:31.944Z,29.00
2018-06-04T12:55:08.378Z,29.90
2018-06-04T12:57:44.933Z,28.60
2018-06-04T13:00:21.468Z,29.00
2018-06-04T13:02:57.949Z,30.20
2018-06-04T13:05:34.384Z,31.10
2018-06-04T13:08:10.944Z,30.10
2018-06-04T13:10:47.270Z,30.20
2018-06-04T13:13:23.828Z,29.80
2018-06-04T13:16:00.399Z,30.50
2018-06-04T13:18:36.960Z,29.90
2018-06-04T13:21:13.346Z,29.30
2018-06-04T13:23:50.873Z,29.30
2018-06-04T13:26:27.353Z,29.30
2018-06-04T13:29:03.887Z,29.80
2018-06-04T13:31:40.310Z,29.30
2018-06-04T13:34:16.694Z,30.60
2018-06-04T13:36:52.992Z,31.20
2018-06-04T13:39:29.439Z,29.60
2018-06-04T13:42:07.098Z,30.60
2018-06-04T13:44:43.524Z,30.90
2018-06-04T13:47:20.993Z,30.50
2018-06-04T13:49:57.874Z,30.70
2018-06-04T13:52:34.536Z,29.20
2018-06-04T13:55:10.953Z,30.40
2018-06-04T13:57:47.439Z,29.10
2018-06-04T14:00:23.939Z,29.90
2018-06-04T14:03:00.611Z,29.30
2018-06-04T14:05:37.063Z,28.60
2018-06-04T14:08:14.166Z,29.00
2018-06-04T14:10:50.516Z,28.70
2018-06-04T14:13:26.822Z,29.80
2018-06-04T14:16:03.333Z,30.40
2018-06-04T14:18:39.911Z,29.30
2018-06-04T14:21:16.396Z,29.60
2018-06-04T14:23:53.003Z,29.10
2018-06-04T14:26:29.324Z,29.30
2018-06-04T14:29:06.120Z,29.10
2018-06-04T14:31:42.952Z,28.00
2018-06-04T14:34:19.546Z,28.20
2018-06-04T14:36:56.072Z,27.40
2018-06-04T14:39:32.571Z,27.30
2018-06-04T14:42:08.962Z,27.30
2018-06-04T14:44:45.483Z,27.40
2018-06-04T14:47:23.338Z,27.60
2018-06-04T14:49:59.873Z,28.30
2018-06-04T14:52:36.222Z,27.20
2018-06-04T14:55:12.710Z,27.70
2018-06-04T14:57:49.154Z,26.00
2018-06-04T15:00:25.622Z,26.30
2018-06-04T15:03:02.119Z,27.00
2018-06-04T15:05:38.518Z,27.20
2018-06-04T15:08:15.646Z,27.60
2018-06-04T15:10:52.020Z,26.30
2018-06-04T15:13:28.324Z,26.40
2018-06-04T15:16:04.807Z,24.70
2018-06-04T15:18:41.278Z,25.60
2018-06-04T15:21:17.819Z,26.00
2018-06-04T15:23:54.176Z,25.50
2018-06-04T15:26:30.459Z,25.80
2018-06-04T15:29:14.593Z,26.00
2018-06-04T15:31:50.866Z,26.20
2018-06-04T15:34:27.456Z,26.20
2018-06-04T15:37:03.789Z,24.90
2018-06-04T15:39:41.070Z,25.70
2018-06-04T15:42:17.419Z,25.30
2018-06-04T15:44:53.782Z,24.90
2018-06-04T15:47:31.532Z,24.30
2018-06-04T15:50:07.835Z,24.00
2018-06-04T15:52:44.363Z,24.40
2018-06-04T15:55:20.792Z,26.00
2018-06-04T15:57:57.418Z,26.70
2018-06-04T16:00:33.907Z,25.40
2018-06-04T16:03:10.381Z,25.40
2018-06-04T16:05:46.862Z,25.70
2018-06-04T16:08:24.365Z,25.40
2018-06-04T16:11:03.110Z,24.20
2018-06-04T16:13:40.543Z,25.00
2018-06-04T16:16:17.033Z,23.80
2018-06-04T16:18:53.562Z,24.00
2018-06-04T16:21:30.084Z,24.40
2018-06-04T16:24:06.469Z,24.40
2018-06-04T16:26:42.955Z,23.90
2018-06-04T16:29:20.413Z,25.30
2018-06-04T16:31:56.899Z,25.90
2018-06-04T16:34:33.594Z,26.40
2018-06-04T16:37:10.292Z,26.90
2018-06-04T16:39:46.939Z,26.50
2018-06-04T16:42:23.684Z,26.30
2018-06-04T16:45:00.353Z,26.30
2018-06-04T16:47:36.938Z,26.40
2018-06-04T16:50:13.536Z,25.30
2018-06-04T16:52:52.048Z,26.50
2018-06-04T16:55:28.537Z,26.60
2018-06-04T16:58:05.408Z,26.50
2018-06-04T17:00:41.982Z,26.60
2018-06-04T17:03:18.956Z,26.40
2018-06-04T17:05:55.527Z,26.50
2018-06-04T17:08:32.382Z,27.10
2018-06-04T17:11:09.229Z,27.80
2018-06-04T17:13:46.354Z,28.30
2018-06-04T17:19:00.043Z,29.60
2018-06-04T17:21:37.394Z,30.00
2018-06-04T17:24:14.337Z,29.90
2018-06-04T17:26:50.750Z,30.70
2018-06-04T17:29:27.123Z,31.90
2018-06-04T17:32:04.221Z,32.60
2018-06-04T17:34:41.924Z,36.40
2018-06-04T17:37:18.500Z,35.70
2018-06-04T17:39:55.078Z,35.50
2018-06-04T17:42:31.534Z,34.30
2018-06-04T17:47:44.296Z,34.60
2018-06-04T17:50:20.759Z,35.20
2018-06-04T17:52:58.472Z,34.90
2018-06-04T17:55:34.960Z,35.00
2018-06-04T17:58:11.611Z,36.00
2018-06-04T18:00:48.178Z,36.40
2018-06-04T18:03:24.766Z,36.90
2018-06-04T18:06:01.196Z,36.60
2018-06-04T18:08:37.687Z,36.60
2018-06-04T18:11:14.183Z,37.00
2018-06-04T18:13:50.721Z,37.60
2018-06-04T18:16:27.124Z,37.90
2018-06-04T18:19:03.606Z,38.50
2018-06-04T18:21:39.986Z,38.90
2018-06-04T18:24:16.408Z,39.30
2018-06-04T18:26:52.748Z,39.80
2018-06-04T18:29:30.299Z,40.20
2018-06-04T18:32:06.739Z,41.00
2018-06-04T18:34:43.174Z,41.60
2018-06-04T18:37:19.611Z,41.90
2018-06-04T18:39:55.974Z,42.30
2018-06-04T18:42:32.533Z,42.50
2018-06-04T18:45:09.058Z,43.00
2018-06-04T18:47:45.571Z,42.90
2018-06-04T18:50:22.137Z,42.90
2018-06-04T18:52:58.648Z,42.80
2018-06-04T18:55:35.117Z,43.50
2018-06-04T18:58:13.229Z,43.70
2018-06-04T19:00:49.713Z,44.10
2018-06-04T19:03:26.220Z,44.20
2018-06-04T19:06:02.735Z,44.50
2018-06-04T19:08:39.511Z,44.50
2018-06-04T19:11:16.060Z,45.90
2018-06-04T19:13:52.843Z,45.80
2018-06-04T19:16:29.376Z,45.30
2018-06-04T19:19:07.113Z,45.50
2018-06-04T19:21:43.655Z,45.80
2018-06-04T19:24:20.201Z,45.80
2018-06-04T19:26:56.788Z,45.30
2018-06-04T19:29:33.259Z,45.30
2018-06-04T19:32:10.480Z,44.70
2018-06-04T19:34:47.048Z,44.20
2018-06-04T19:37:23.621Z,44.20
2018-06-04T19:40:00.587Z,43.80
2018-06-04T19:42:37.051Z,43.40
2018-06-04T19:45:13.747Z,43.10
2018-06-04T19:47:50.285Z,43.30
2018-06-04T19:50:27.067Z,43.80
2018-06-04T19:53:04.220Z,43.50
2018-06-04T19:55:41.009Z,43.40
2018-06-04T19:58:18.398Z,43.40
2018-06-04T20:00:55.483Z,43.50
2018-06-04T20:03:32.567Z,44.00
2018-06-04T20:06:08.938Z,43.90
2018-06-04T20:08:45.551Z,44.40
2018-06-04T20:13:58.301Z,44.90
2018-06-04T20:16:34.999Z,46.70
2018-06-04T20:19:11.535Z,47.10
2018-06-04T20:21:47.979Z,46.40
2018-06-04T20:24:24.388Z,47.70
2018-06-04T20:27:00.666Z,49.10
2018-06-04T20:29:37.219Z,48.60
2018-06-04T20:32:14.465Z,48.70
2018-06-04T20:34:51.020Z,49.00
2018-06-04T20:37:27.428Z,49.60
2018-06-04T20:40:04.759Z,49.70
2018-06-04T20:42:42.047Z,49.90
2018-06-04T20:45:18.624Z,50.50
2018-06-04T20:47:55.043Z,51.00
2018-06-04T20:50:31.560Z,51.20
2018-06-04T20:53:08.142Z,51.30
2018-06-04T20:55:44.594Z,51.30
2018-06-04T20:58:21.014Z,51.70
2018-06-04T21:00:57.839Z,51.70
2018-06-04T21:03:34.190Z,51.90
2018-06-04T21:06:13.972Z,52.20
2018-06-04T21:08:50.560Z,52.20
2018-06-04T21:11:27.036Z,52.70
2018-06-04T21:14:03.556Z,53.10
2018-06-04T21:16:39.882Z,53.20
2018-06-04T21:19:16.214Z,53.50
2018-06-04T21:21:52.593Z,53.70
2018-06-04T21:24:29.022Z,54.00
2018-06-04T21:27:05.577Z,54.20
2018-06-04T21:32:18.112Z,55.00
2018-06-04T21:34:54.650Z,55.20
2018-06-04T21:37:31.049Z,55.60
2018-06-04T21:40:07.712Z,55.90
2018-06-04T21:42:44.348Z,56.20
2018-06-04T21:45:20.948Z,56.40
2018-06-04T21:47:57.454Z,56.70
2018-06-04T21:50:33.832Z,57.80
2018-06-04T21:53:10.375Z,57.40
2018-06-04T21:55:46.899Z,57.60
2018-06-04T21:58:23.418Z,57.90
2018-06-04T22:01:00.098Z,58.20
2018-06-04T22:03:37.836Z,58.30
2018-06-04T22:06:14.331Z,58.80
2018-06-04T22:08:50.800Z,59.30
2018-06-04T22:11:27.234Z,59.40
2018-06-04T22:14:04.179Z,59.60
2018-06-04T22:16:40.736Z,60.00
2018-06-04T22:19:17.653Z,60.20
2018-06-04T22:21:54.287Z,60.40
2018-06-04T22:24:30.708Z,60.60
2018-06-04T22:27:07.725Z,61.60
2018-06-04T22:29:44.332Z,60.90
2018-06-04T22:32:20.693Z,60.90
2018-06-04T22:34:57.137Z,61.30
2018-06-04T22:37:33.542Z,61.50
2018-06-04T22:40:10.750Z,61.90
2018-06-04T22:42:47.139Z,61.80
2018-06-04T22:45:23.763Z,61.90
2018-06-04T22:48:00.232Z,62.00
2018-06-04T22:50:36.686Z,62.40
2018-06-04T22:53:13.184Z,62.40
2018-06-04T22:55:50.360Z,62.40
2018-06-04T22:58:26.634Z,62.50
2018-06-04T23:01:03.247Z,62.90
2018-06-04T23:03:39.790Z,63.10
2018-06-04T23:06:16.338Z,63.40
2018-06-04T23:08:56.347Z,63.50
2018-06-04T23:11:32.902Z,63.60
2018-06-04T23:14:09.333Z,63.70
2018-06-04T23:16:45.880Z,63.80
2018-06-04T23:19:22.514Z,64.20
2018-06-04T23:21:59.013Z,64.20
2018-06-04T23:24:35.286Z,64.20
2018-06-04T23:27:11.983Z,64.50
2018-06-04T23:29:49.339Z,64.70
2018-06-04T23:32:27.011Z,64.50
2018-06-04T23:35:03.902Z,64.60
2018-06-04T23:37:40.519Z,65.00
2018-06-04T23:40:17.147Z,65.20
2018-06-04T23:42:54.459Z,65.20
2018-06-04T23:45:31.210Z,65.20
2018-06-04T23:48:08.118Z,65.10
2018-06-04T23:53:20.962Z,65.10
2018-06-04T23:55:57.915Z,65.00
2018-06-04T23:58:34.532Z,65.20
